createdAt,value
2023-02-13T00:00:50.282Z,3.99
2023-02-13T00:05:47.076Z,3.98
2023-02-13T00:10:43.821Z,3.77
2023-02-13T00:15:40.554Z,3.83
2023-02-13T00:20:38.054Z,3.86
2023-02-13T00:25:34.909Z,3.90
2023-02-13T00:30:31.961Z,3.93
2023-02-13T00:35:28.675Z,3.91
2023-02-13T00:40:26.199Z,3.84
2023-02-13T00:45:22.800Z,3.75
2023-02-13T00:50:19.730Z,3.89
2023-02-13T00:55:16.382Z,4.02
2023-02-13T01:00:14.693Z,4.21
2023-02-13T01:05:11.783Z,4.06
2023-02-13T01:10:08.721Z,3.69
2023-02-13T01:15:05.785Z,3.74
2023-02-13T01:20:03.146Z,3.48
2023-02-13T01:24:59.782Z,3.44
2023-02-13T01:30:00.592Z,3.48
2023-02-13T01:34:57.287Z,3.64
2023-02-13T01:39:55.803Z,3.62
2023-02-13T01:44:53.569Z,3.23
2023-02-13T01:49:53.042Z,3.31
2023-02-13T01:54:49.729Z,3.37
2023-02-13T01:59:49.384Z,3.21
2023-02-13T02:04:47.146Z,3.54
2023-02-13T02:09:47.966Z,3.46
2023-02-13T02:14:45.962Z,3.43
2023-02-13T02:19:49.385Z,3.26
2023-02-13T02:25:00.913Z,3.43
2023-02-13T02:30:27.521Z,3.54
2023-02-13T02:35:29.768Z,3.51
2023-02-13T02:40:32.781Z,3.60
2023-02-13T02:45:35.057Z,3.85
2023-02-13T02:50:37.553Z,3.48
2023-02-13T02:55:38.810Z,3.55
2023-02-13T03:00:56.047Z,3.41
2023-02-13T03:06:09.870Z,3.36
2023-02-13T03:11:24.956Z,3.37
2023-02-13T03:16:42.661Z,3.40
2023-02-13T03:22:09.458Z,3.14
2023-02-13T03:27:08.665Z,3.13
2023-02-13T03:32:09.912Z,2.87
2023-02-13T03:37:28.251Z,2.95
2023-02-13T03:42:28.556Z,3.18
2023-02-13T03:47:26.006Z,2.91
2023-02-13T03:52:26.389Z,3.05
2023-02-13T03:57:42.341Z,3.07
2023-02-13T04:02:41.420Z,3.12
2023-02-13T04:07:38.758Z,3.18
2023-02-13T04:12:37.800Z,3.22
2023-02-13T04:17:36.879Z,2.88
2023-02-13T04:22:33.508Z,3.02
2023-02-13T04:27:30.932Z,3.18
2023-02-13T04:32:32.694Z,3.48
2023-02-13T04:37:29.453Z,3.58
2023-02-13T04:42:26.356Z,3.24
2023-02-13T04:47:23.870Z,2.91
2023-02-13T04:52:20.755Z,2.76
2023-02-13T04:57:19.576Z,2.72
2023-02-13T05:02:16.328Z,2.94
2023-02-13T05:07:13.747Z,2.77
2023-02-13T05:12:10.655Z,2.64
2023-02-13T05:17:08.817Z,2.83
2023-02-13T05:22:23.653Z,2.96
2023-02-13T05:27:23.205Z,3.13
2023-02-13T05:32:20.081Z,3.06
2023-02-13T05:37:17.046Z,2.71
2023-02-13T05:42:15.725Z,2.56
2023-02-13T05:47:13.172Z,2.49
2023-02-13T05:52:10.018Z,2.28
2023-02-13T05:57:06.934Z,2.03
2023-02-13T06:02:04.180Z,2.11
2023-02-13T06:07:01.854Z,2.22
2023-02-13T06:12:00.157Z,2.04
2023-02-13T06:17:03.768Z,1.98
2023-02-13T06:22:06.411Z,1.93
2023-02-13T06:27:03.838Z,1.95
2023-02-13T06:32:01.153Z,1.81
2023-02-13T06:36:58.155Z,2.10
2023-02-13T06:41:58.594Z,2.03
2023-02-13T06:46:56.198Z,2.20
2023-02-13T06:51:56.279Z,2.40
2023-02-13T06:56:52.987Z,2.54
2023-02-13T07:01:52.930Z,2.71
2023-02-13T07:06:59.269Z,2.52
2023-02-13T07:11:56.149Z,2.76
2023-02-13T07:16:53.803Z,2.58
2023-02-13T07:21:53.450Z,2.65
2023-02-13T07:26:50.618Z,2.73
2023-02-13T07:31:48.768Z,2.59
2023-02-13T07:36:59.298Z,2.85
2023-02-13T08:08:12.213Z,4.17
2023-02-13T08:27:19.282Z,4.30
2023-02-13T09:38:02.588Z,6.33
2023-02-13T10:26:47.308Z,7.48
2023-02-13T10:31:48.453Z,7.39
2023-02-13T10:36:48.643Z,7.31
2023-02-13T10:41:51.164Z,7.31
2023-02-13T10:46:55.698Z,7.01
2023-02-13T10:51:58.662Z,7.27
2023-02-13T10:56:58.300Z,7.13
2023-02-13T11:02:00.413Z,7.34
2023-02-13T11:06:59.477Z,7.52
2023-02-13T11:11:58.921Z,7.58
2023-02-13T11:16:58.216Z,7.61
2023-02-13T11:21:56.459Z,7.59
2023-02-13T11:26:55.091Z,7.46
2023-02-13T11:32:03.081Z,7.51
2023-02-13T11:37:30.102Z,7.78
2023-02-13T11:42:29.556Z,7.83
2023-02-13T11:47:39.772Z,7.86
2023-02-13T11:52:37.297Z,7.69
2023-02-13T11:57:41.331Z,7.81
2023-02-13T12:02:50.986Z,7.94
2023-02-13T12:07:48.467Z,7.78
2023-02-13T12:12:51.521Z,7.78
2023-02-13T12:18:00.444Z,8.09
2023-02-13T12:23:03.516Z,7.93
2023-02-13T12:28:09.283Z,7.93
2023-02-13T12:33:16.406Z,8.05
2023-02-13T12:38:25.023Z,8.00
2023-02-13T12:43:29.666Z,8.01
2023-02-13T12:48:33.497Z,8.26
2023-02-13T12:53:43.025Z,8.36
2023-02-13T12:59:03.071Z,8.05
2023-02-13T13:04:09.781Z,8.10
2023-02-13T13:09:13.742Z,8.10
2023-02-13T13:14:14.180Z,8.16
2023-02-13T13:24:40.306Z,8.17
2023-02-13T13:29:43.253Z,8.19
2023-02-13T13:34:40.894Z,8.12
2023-02-13T13:39:43.946Z,8.22
2023-02-13T13:44:47.305Z,8.08
2023-02-13T13:49:48.713Z,8.02
2023-02-13T13:54:51.159Z,7.96
2023-02-13T14:00:01.649Z,7.87
2023-02-13T14:05:57.286Z,7.96
2023-02-13T14:11:05.751Z,7.96
2023-02-13T14:16:03.844Z,7.97
2023-02-13T14:21:01.684Z,7.99
2023-02-13T14:26:19.616Z,7.84
2023-02-13T14:31:21.895Z,7.94
2023-02-13T14:36:21.174Z,7.87
2023-02-13T14:41:36.803Z,7.87
2023-02-13T14:46:37.539Z,7.90
2023-02-13T14:51:59.550Z,7.97
2023-02-13T14:57:01.244Z,8.05
2023-02-13T15:01:59.946Z,7.91
2023-02-13T15:07:00.348Z,7.89
2023-02-13T15:11:57.855Z,8.12
2023-02-13T15:17:00.256Z,7.97
2023-02-13T15:21:59.203Z,7.98
2023-02-13T15:27:00.031Z,7.87
2023-02-13T15:31:57.402Z,7.81
2023-02-13T15:36:54.564Z,7.81
2023-02-13T15:41:53.150Z,7.59
2023-02-13T15:46:51.612Z,7.78
2023-02-13T15:51:49.015Z,7.69
2023-02-13T15:56:46.397Z,7.43
2023-02-13T16:01:44.027Z,7.41
2023-02-13T16:06:43.262Z,7.23
2023-02-13T16:11:43.950Z,7.21
2023-02-13T16:16:53.026Z,7.28
2023-02-13T16:21:57.796Z,7.25
2023-02-13T16:26:57.877Z,7.26
2023-02-13T16:32:15.727Z,7.17
2023-02-13T16:37:32.650Z,6.85
2023-02-13T16:42:31.491Z,6.74
2023-02-13T16:47:30.264Z,6.61
2023-02-13T16:52:28.210Z,6.63
2023-02-13T16:57:26.735Z,6.57
2023-02-13T17:02:27.344Z,6.45
2023-02-13T17:07:36.919Z,6.51
2023-02-13T17:12:37.053Z,6.38
2023-02-13T17:17:34.210Z,6.17
2023-02-13T17:22:34.591Z,6.16
2023-02-13T17:27:48.656Z,5.99
2023-02-13T17:32:46.615Z,6.01
2023-02-13T17:37:44.382Z,6.12
2023-02-13T17:42:43.621Z,5.99
2023-02-13T17:47:40.388Z,5.91
2023-02-13T17:52:40.319Z,6.00
2023-02-13T17:57:40.360Z,5.89
2023-02-13T18:02:37.279Z,5.76
2023-02-13T18:07:34.270Z,5.71
2023-02-13T18:12:31.593Z,5.40
2023-02-13T18:18:30.369Z,5.35
2023-02-13T18:23:35.146Z,5.47
2023-02-13T18:28:35.350Z,5.35
2023-02-13T18:33:32.400Z,5.28
2023-02-13T18:38:39.419Z,5.23
2023-02-13T18:43:36.548Z,5.27
2023-02-13T18:48:34.935Z,5.30
2023-02-13T18:53:31.999Z,5.26
2023-02-13T18:58:29.540Z,5.14
2023-02-13T19:03:26.472Z,5.28
2023-02-13T19:08:26.350Z,5.51
2023-02-13T19:13:26.229Z,5.24
2023-02-13T19:18:23.767Z,5.17
2023-02-13T19:23:20.968Z,5.15
2023-02-13T19:28:18.243Z,5.22
2023-02-13T19:33:15.462Z,5.15
2023-02-13T19:38:13.021Z,5.07
2023-02-13T19:43:12.909Z,5.14
2023-02-13T19:48:09.744Z,4.96
2023-02-13T19:53:09.058Z,4.96
2023-02-13T19:58:08.729Z,5.03
2023-02-13T20:03:05.604Z,4.95
2023-02-13T20:08:02.435Z,4.93
2023-02-13T20:13:03.517Z,4.69
2023-02-13T20:18:01.215Z,4.66
2023-02-13T20:22:58.069Z,4.70
2023-02-13T20:27:55.122Z,4.70
2023-02-13T20:32:52.302Z,4.50
2023-02-13T20:37:50.742Z,4.09
2023-02-13T20:42:49.854Z,4.11
2023-02-13T20:47:49.648Z,4.19
2023-02-13T20:52:46.703Z,4.08
2023-02-13T20:58:01.906Z,3.91
2023-02-13T21:03:05.888Z,3.82
2023-02-13T21:08:02.688Z,3.65
2023-02-13T21:13:01.682Z,3.84
2023-02-13T21:18:01.154Z,3.78
2023-02-13T21:23:01.211Z,3.86
2023-02-13T21:27:59.312Z,3.87
2023-02-13T21:32:56.218Z,3.90
2023-02-13T21:37:53.608Z,3.97
2023-02-13T21:42:51.743Z,4.07
2023-02-13T21:47:50.126Z,4.13
2023-02-13T21:52:46.838Z,4.21
2023-02-13T21:57:44.066Z,4.11
2023-02-13T22:02:41.092Z,4.21
2023-02-13T22:07:52.594Z,4.12
2023-02-13T22:12:53.221Z,4.11
2023-02-13T22:17:49.945Z,4.23
2023-02-13T22:22:46.602Z,4.50
2023-02-13T22:27:45.620Z,4.60
2023-02-13T22:32:43.069Z,4.21
2023-02-13T22:37:39.692Z,4.18
2023-02-13T22:42:36.474Z,4.05
2023-02-13T22:47:33.270Z,4.04
2023-02-13T22:52:31.122Z,3.90
2023-02-13T22:57:27.851Z,3.50
2023-02-13T23:02:30.616Z,3.58
2023-02-13T23:07:27.562Z,3.48
2023-02-13T23:12:38.263Z,3.35
2023-02-13T23:18:04.768Z,3.33
2023-02-13T23:23:02.686Z,3.33
2023-02-13T23:28:03.587Z,3.55
2023-02-13T23:33:03.541Z,3.73
2023-02-13T23:38:00.606Z,3.84
2023-02-13T23:42:57.285Z,4.07
2023-02-13T23:47:54.727Z,3.69
2023-02-13T23:52:51.422Z,3.81
2023-02-13T23:57:51.455Z,3.99
